Time;durP1;ratioP1;P1;durP2;ratioP2;P2;SDS_P1;SDS_P2;PMS_P1;PMS_P2;Temp;Humidity;BMP_temperature;BMP_pressure;BME280_temperature;BME280_humidity;BME280_pressure;Samples;Min_cycle;Max_cycle;Signal;HPM_P1;HPM_P2
2021/08/04 00:01:56;;;;;;;12.55;7.03;;;;;10.70;102017.00;;;;5109244;28;20060;-80
2021/08/04 00:04:23;;;;;;;11.15;7.28;;;;;10.70;102002.00;;;;5109087;28;20032;-79
2021/08/04 00:06:51;;;;;;;15.15;7.32;;;;;10.70;102051.00;;;;5108667;28;20020;-80
2021/08/04 00:09:17;;;;;;;11.23;8.02;;;;;10.70;102032.00;;;;5107979;28;20089;-79
2021/08/04 00:11:44;;;;;;;9.82;7.47;;;;;10.70;102046.00;;;;5108622;28;20475;-79
2021/08/04 00:14:10;;;;;;;11.77;7.68;;;;;10.60;102021.00;;;;5108797;28;20110;-79
2021/08/04 00:16:37;;;;;;;13.18;7.80;;;;;10.70;102053.00;;;;5108818;28;20051;-78
2021/08/04 00:19:04;;;;;;;11.00;7.60;;;;;10.70;102060.00;;;;5108229;28;20031;-79
2021/08/04 00:21:31;;;;;;;15.55;7.97;;;;;10.70;102066.00;;;;5108277;28;20028;-79
2021/08/04 00:23:58;;;;;;;10.05;6.82;;;;;10.70;102061.00;;;;5109125;28;20032;-78
2021/08/04 00:26:24;;;;;;;22.15;7.85;;;;;10.70;102026.00;;;;5108961;28;20502;-78
2021/08/04 00:28:51;;;;;;;9.95;6.30;;;;;10.60;102039.00;;;;5108630;28;20028;-79
2021/08/04 00:31:17;;;;;;;8.93;6.35;;;;;10.70;102038.00;;;;5108880;28;20122;-78
2021/08/04 00:33:44;;;;;;;9.38;7.43;;;;;10.70;102032.00;;;;5108134;28;20024;-78
2021/08/04 00:36:10;;;;;;;12.02;7.72;;;;;10.70;102029.00;;;;5108551;28;20024;-79
2021/08/04 00:38:37;;;;;;;10.18;6.47;;;;;10.70;102008.00;;;;5109086;27;20038;-78
2021/08/04 00:41:04;;;;;;;12.02;6.82;;;;;10.70;102009.00;;;;5107463;27;20038;-79
2021/08/04 00:43:30;;;;;;;13.00;7.82;;;;;10.70;102026.00;;;;5107945;28;20471;-79
2021/08/04 00:45:57;;;;;;;11.77;7.35;;;;;10.70;102038.00;;;;5106655;28;20027;-79
2021/08/04 00:48:24;;;;;;;13.60;7.65;;;;;10.70;102004.00;;;;5107807;28;20039;-80
2021/08/04 00:50:51;;;;;;;16.08;8.75;;;;;10.70;102031.00;;;;5108294;28;20118;-79
2021/08/04 00:53:26;;;;;;;13.85;8.48;;;;;10.60;102028.00;;;;5108510;28;20106;-79
2021/08/04 00:55:55;;;;;;;18.00;8.77;;;;;10.60;102060.00;;;;5108285;28;20070;-79
2021/08/04 00:58:29;;;;;;;13.50;8.70;;;;;10.60;102037.00;;;;5107842;28;20486;-79
2021/08/04 01:01:44;;;;;;;12.52;8.98;;;;;10.60;102058.00;;;;5108439;28;20024;-79
2021/08/04 01:04:22;;;;;;;13.00;8.25;;;;;10.60;102026.00;;;;5104766;28;20096;-78
2021/08/04 01:07:05;;;;;;;13.88;8.55;;;;;10.60;102054.00;;;;5108001;28;20051;-78
2021/08/04 01:09:53;;;;;;;11.30;7.53;;;;;10.60;102030.00;;;;5108102;28;20023;-78
2021/08/04 01:12:24;;;;;;;14.50;7.82;;;;;10.60;102045.00;;;;5107884;28;20115;-79
2021/08/04 01:15:02;;;;;;;10.75;7.78;;;;;10.50;102017.00;;;;5107931;28;20038;-79
2021/08/04 01:17:29;;;;;;;10.43;6.97;;;;;10.40;102035.00;;;;5107945;28;20051;-79
2021/08/04 01:20:18;;;;;;;9.73;6.65;;;;;10.40;102055.00;;;;5108037;28;20399;-79
2021/08/04 01:22:59;;;;;;;8.30;5.97;;;;;10.40;102065.00;;;;5107882;28;20126;-78
2021/08/04 01:25:35;;;;;;;9.20;6.43;;;;;10.40;102067.00;;;;5107680;28;20204;-78
2021/08/04 01:28:19;;;;;;;8.88;6.57;;;;;10.40;102043.00;;;;5107746;28;20126;-78
2021/08/04 01:30:49;;;;;;;11.40;6.05;;;;;10.50;102040.00;;;;5106188;28;20545;-78
2021/08/04 01:33:17;;;;;;;8.75;5.90;;;;;10.50;102078.00;;;;5107275;28;20031;-79
2021/08/04 01:35:45;;;;;;;8.70;5.75;;;;;10.40;102078.00;;;;5107259;28;20031;-77
2021/08/04 01:38:18;;;;;;;10.02;5.65;;;;;10.40;102061.00;;;;5107349;28;20111;-78
2021/08/04 01:40:48;;;;;;;10.55;6.40;;;;;10.40;102049.00;;;;5108447;28;20502;-78
2021/08/04 01:43:15;;;;;;;12.05;6.55;;;;;10.40;102051.00;;;;5107325;28;20031;-78
2021/08/04 01:45:42;;;;;;;10.60;6.75;;;;;10.50;102072.00;;;;5106549;28;20546;-78
2021/08/04 01:48:09;;;;;;;11.35;6.50;;;;;10.50;102072.00;;;;5106876;28;20394;-78
2021/08/04 01:50:41;;;;;;;13.35;6.65;;;;;10.40;102054.00;;;;5106403;28;20390;-78
2021/08/04 01:53:08;;;;;;;12.38;7.05;;;;;10.40;102079.00;;;;5105613;27;20187;-77
2021/08/04 01:55:35;;;;;;;18.52;9.65;;;;;10.50;102086.00;;;;5107195;28;20069;-78
2021/08/04 01:58:02;;;;;;;13.48;7.60;;;;;10.50;102063.00;;;;5105080;28;20091;-78
2021/08/04 02:00:29;;;;;;;27.92;15.98;;;;;10.50;102080.00;;;;5107040;28;20035;-78
2021/08/04 02:02:56;;;;;;;12.55;7.43;;;;;10.50;102085.00;;;;5106964;28;20028;-77
2021/08/04 02:05:22;;;;;;;16.45;8.35;;;;;10.50;102071.00;;;;5107075;28;20032;-78
2021/08/04 02:07:58;;;;;;;13.52;8.15;;;;;10.50;102096.00;;;;5107477;28;20020;-78
2021/08/04 02:10:46;;;;;;;17.60;8.35;;;;;10.50;102054.00;;;;5107125;28;20115;-78
2021/08/04 02:13:51;;;;;;;16.73;7.88;;;;;10.40;102082.00;;;;5107134;28;20459;-78
2021/08/04 02:16:38;;;;;;;17.85;8.23;;;;;10.40;102073.00;;;;5105947;28;20070;-78
2021/08/04 02:19:10;;;;;;;16.13;7.90;;;;;10.40;102083.00;;;;5107611;28;20019;-77
2021/08/04 02:21:39;;;;;;;13.00;8.23;;;;;10.40;102089.00;;;;5107193;28;20028;-78
2021/08/04 02:24:06;;;;;;;13.63;8.00;;;;;10.40;102077.00;;;;5106615;28;20114;-78
2021/08/04 02:26:35;;;;;;;14.32;8.25;;;;;10.50;102087.00;;;;5105359;28;20030;-77
2021/08/04 02:29:04;;;;;;;19.27;8.98;;;;;10.60;102071.00;;;;5107077;28;20093;-79
2021/08/04 02:31:31;;;;;;;13.90;8.70;;;;;10.60;102087.00;;;;5107832;28;20482;-78
2021/08/04 02:34:00;;;;;;;13.98;9.05;;;;;10.60;102067.00;;;;5106676;28;20038;-78
2021/08/04 02:36:27;;;;;;;16.50;9.05;;;;;10.50;102065.00;;;;5105558;28;20399;-78
2021/08/04 02:38:56;;;;;;;13.95;8.35;;;;;10.50;102095.00;;;;5105693;28;20028;-79
2021/08/04 02:41:23;;;;;;;18.75;9.25;;;;;10.50;102087.00;;;;5106918;28;20495;-78
2021/08/04 02:43:50;;;;;;;19.02;9.27;;;;;10.50;102097.00;;;;5106652;28;20032;-78
2021/08/04 02:46:16;;;;;;;17.23;9.23;;;;;10.50;102070.00;;;;5107023;28;20024;-78
2021/08/04 02:48:43;;;;;;;18.27;9.57;;;;;10.60;102098.00;;;;5106530;28;20034;-78
2021/08/04 02:51:12;;;;;;;14.77;9.98;;;;;10.60;102093.00;;;;5106795;28;20639;-78
2021/08/04 02:53:39;;;;;;;22.92;9.75;;;;;10.60;102091.00;;;;5106392;28;20118;-78
2021/08/04 02:56:06;;;;;;;18.52;10.50;;;;;10.60;102082.00;;;;5107345;28;20039;-77
2021/08/04 02:58:37;;;;;;;17.15;10.05;;;;;10.60;102068.00;;;;5106815;28;20058;-78
2021/08/04 03:01:07;;;;;;;17.17;10.18;;;;;10.60;102085.00;;;;5106729;28;20028;-78
2021/08/04 03:03:35;;;;;;;22.07;11.37;;;;;10.60;102082.00;;;;5108055;28;20027;-78
2021/08/04 03:06:02;;;;;;;23.50;11.43;;;;;10.60;102084.00;;;;5110595;28;20080;-78
2021/08/04 03:08:28;;;;;;;19.77;11.07;;;;;10.60;102096.00;;;;5110865;28;20417;-78
2021/08/04 03:10:55;;;;;;;25.15;10.82;;;;;10.60;102070.00;;;;5110418;28;20085;-78
2021/08/04 03:13:21;;;;;;;20.25;10.48;;;;;10.60;102114.00;;;;5108560;27;20035;-78
2021/08/04 03:15:48;;;;;;;27.65;11.25;;;;;10.60;102104.00;;;;5109949;28;20420;-78
2021/08/04 03:18:14;;;;;;;26.02;11.63;;;;;10.70;102075.00;;;;5109571;28;20051;-78
2021/08/04 03:20:41;;;;;;;29.10;12.48;;;;;10.70;102109.00;;;;5110088;28;20026;-78
2021/08/04 03:23:08;;;;;;;18.77;11.43;;;;;10.70;102106.00;;;;5109202;28;20027;-78
2021/08/04 03:25:34;;;;;;;24.92;11.15;;;;;10.70;102075.00;;;;5110318;28;20371;-78
2021/08/04 03:28:01;;;;;;;20.92;12.32;;;;;10.60;102097.00;;;;5109876;28;20502;-78
2021/08/04 03:30:27;;;;;;;27.23;13.73;;;;;10.70;102089.00;;;;5110009;28;20023;-78
2021/08/04 03:32:54;;;;;;;25.42;12.63;;;;;10.70;102097.00;;;;5109550;28;20027;-78
2021/08/04 03:35:20;;;;;;;22.38;12.68;;;;;10.80;102107.00;;;;5110339;28;20024;-78
2021/08/04 03:37:47;;;;;;;28.52;12.32;;;;;10.70;102090.00;;;;5109819;28;20036;-78
2021/08/04 03:40:14;;;;;;;20.27;11.90;;;;;10.70;102100.00;;;;5109791;28;20024;-77
2021/08/04 03:42:41;;;;;;;32.53;13.52;;;;;10.80;102092.00;;;;5109789;28;20036;-78
2021/08/04 03:45:08;;;;;;;21.20;11.70;;;;;10.80;102104.00;;;;5108672;28;20476;-78
2021/08/04 03:47:35;;;;;;;22.85;12.18;;;;;10.80;102078.00;;;;5108525;28;20038;-78
2021/08/04 03:50:01;;;;;;;23.92;12.73;;;;;10.70;102088.00;;;;5106751;28;20036;-78
2021/08/04 03:52:28;;;;;;;20.70;11.60;;;;;10.80;102088.00;;;;5109097;28;20375;-78
2021/08/04 03:54:54;;;;;;;19.02;11.07;;;;;10.80;102087.00;;;;5109038;28;20073;-78
2021/08/04 03:57:21;;;;;;;22.52;12.77;;;;;10.80;102064.00;;;;5109831;28;20088;-77
2021/08/04 03:59:47;;;;;;;26.77;12.40;;;;;10.90;102082.00;;;;5109205;28;20045;-78
2021/08/04 04:02:14;;;;;;;24.63;12.15;;;;;10.90;102100.00;;;;5109153;27;20024;-78
2021/08/04 04:04:40;;;;;;;22.10;10.88;;;;;10.90;102062.00;;;;5109270;28;20447;-78
2021/08/04 04:07:07;;;;;;;20.25;11.25;;;;;10.90;102083.00;;;;5107721;28;20028;-79
2021/08/04 04:09:40;;;;;;;20.75;10.93;;;;;10.90;102095.00;;;;5108709;28;20062;-77
2021/08/04 04:12:07;;;;;;;19.33;9.70;;;;;10.90;102086.00;;;;5108118;28;20035;-79
2021/08/04 04:14:33;;;;;;;19.08;10.75;;;;;10.90;102081.00;;;;5108086;28;20019;-78
2021/08/04 04:17:00;;;;;;;20.90;10.32;;;;;10.90;102095.00;;;;5109097;28;20051;-79
2021/08/04 04:19:26;;;;;;;19.90;10.57;;;;;11.00;102090.00;;;;5109111;28;20023;-77
2021/08/04 04:21:53;;;;;;;18.50;10.73;;;;;11.00;102070.00;;;;5108600;28;20024;-79
2021/08/04 04:24:20;;;;;;;15.98;9.60;;;;;11.00;102085.00;;;;5108982;28;20471;-80
2021/08/04 04:26:46;;;;;;;11.43;7.88;;;;;10.90;102084.00;;;;5108909;28;20051;-80
2021/08/04 04:29:13;;;;;;;15.20;9.00;;;;;10.90;102077.00;;;;5108750;28;20089;-78
2021/08/04 04:31:39;;;;;;;15.50;9.45;;;;;11.00;102063.00;;;;5107995;28;20425;-81
2021/08/04 04:34:06;;;;;;;15.95;9.00;;;;;11.00;102078.00;;;;5109710;28;20024;-79
2021/08/04 04:36:33;;;;;;;15.07;8.55;;;;;11.00;102084.00;;;;5108678;28;20028;-79
2021/08/04 04:38:59;;;;;;;14.50;7.90;;;;;11.10;102073.00;;;;5108413;28;20027;-78
2021/08/04 04:41:26;;;;;;;15.43;7.63;;;;;11.00;102083.00;;;;5108414;28;20027;-79
2021/08/04 04:43:53;;;;;;;13.20;7.40;;;;;11.00;102066.00;;;;5108714;28;20106;-79
2021/08/04 04:46:19;;;;;;;10.95;7.18;;;;;11.00;102066.00;;;;5107967;28;20027;-77
2021/08/04 04:48:46;;;;;;;10.90;7.80;;;;;11.00;102098.00;;;;5108777;28;20086;-79
2021/08/04 04:51:12;;;;;;;16.80;7.38;;;;;11.00;102062.00;;;;5108091;28;20116;-79
2021/08/04 04:53:39;;;;;;;12.27;7.03;;;;;11.00;102015.00;;;;5108383;28;20490;-79
2021/08/04 04:56:06;;;;;;;11.10;7.13;;;;;11.00;102073.00;;;;5108669;28;20069;-79
2021/08/04 04:58:32;;;;;;;9.93;7.22;;;;;11.10;102098.00;;;;5107704;28;20081;-80
2021/08/04 05:00:59;;;;;;;12.27;6.90;;;;;11.00;102089.00;;;;5109033;28;20126;-79
2021/08/04 05:03:26;;;;;;;11.30;7.22;;;;;11.00;102065.00;;;;5107877;28;20027;-78
2021/08/04 05:05:52;;;;;;;12.05;6.60;;;;;11.10;102088.00;;;;5107792;28;20024;-79
2021/08/04 05:08:19;;;;;;;11.40;6.07;;;;;11.10;102096.00;;;;5107821;28;20032;-78
2021/08/04 05:10:45;;;;;;;10.15;6.65;;;;;11.10;102106.00;;;;5107369;28;20028;-78
2021/08/04 05:13:12;;;;;;;18.15;5.97;;;;;11.10;102079.00;;;;5108371;28;20027;-78
2021/08/04 05:15:39;;;;;;;10.05;5.53;;;;;11.10;102089.00;;;;5107948;28;20106;-79
2021/08/04 05:18:05;;;;;;;9.45;6.22;;;;;11.10;102076.00;;;;5107668;28;20048;-77
2021/08/04 05:20:32;;;;;;;9.18;5.97;;;;;11.10;102103.00;;;;5107902;28;20603;-78
2021/08/04 05:22:58;;;;;;;11.25;5.57;;;;;11.10;102078.00;;;;5107759;28;20027;-77
2021/08/04 05:25:27;;;;;;;9.32;4.95;;;;;11.10;102080.00;;;;5108054;28;20509;-77
2021/08/04 05:27:53;;;;;;;8.80;5.32;;;;;11.20;102076.00;;;;5107935;28;20051;-78
2021/08/04 05:30:20;;;;;;;11.30;7.47;;;;;11.20;102077.00;;;;5107688;28;20031;-78
2021/08/04 05:32:47;;;;;;;18.02;9.13;;;;;11.20;102071.00;;;;5107500;28;20032;-78
2021/08/04 05:35:13;;;;;;;14.88;9.10;;;;;11.20;102103.00;;;;5107698;28;20057;-77
2021/08/04 05:37:40;;;;;;;18.33;10.18;;;;;11.20;102065.00;;;;5107508;28;20027;-78
2021/08/04 05:40:07;;;;;;;17.25;9.77;;;;;11.20;102077.00;;;;5107196;28;20062;-78
2021/08/04 05:42:34;;;;;;;20.88;10.35;;;;;11.10;102080.00;;;;5107963;28;20077;-77
2021/08/04 05:45:01;;;;;;;18.05;10.75;;;;;11.00;102043.00;;;;5106409;28;20513;-78
2021/08/04 05:47:27;;;;;;;19.55;10.80;;;;;11.00;102059.00;;;;5107482;28;20106;-79
2021/08/04 05:49:54;;;;;;;21.20;10.48;;;;;11.10;102066.00;;;;5107135;28;20110;-78
2021/08/04 05:52:20;;;;;;;20.90;11.48;;;;;11.00;102081.00;;;;5107217;28;20436;-79
2021/08/04 05:54:47;;;;;;;23.48;11.10;;;;;11.00;102048.00;;;;5105691;28;20023;-78
2021/08/04 05:57:13;;;;;;;22.40;11.23;;;;;11.00;102065.00;;;;5107557;28;20024;-78
2021/08/04 05:59:40;;;;;;;21.50;11.85;;;;;11.00;102060.00;;;;5107697;28;20032;-78
2021/08/04 06:02:07;;;;;;;17.90;10.35;;;;;11.10;102070.00;;;;5107369;28;20027;-78
2021/08/04 06:04:34;;;;;;;18.88;9.95;;;;;11.10;102080.00;;;;5107259;28;20027;-78
2021/08/04 06:07:01;;;;;;;17.80;9.98;;;;;11.00;102064.00;;;;5107300;28;20519;-78
2021/08/04 06:09:30;;;;;;;11.05;6.95;;;;;11.10;102080.00;;;;5107933;28;20027;-78
2021/08/04 06:11:57;;;;;;;14.65;6.68;;;;;11.20;102085.00;;;;5107366;28;20027;-78
2021/08/04 06:14:24;;;;;;;12.02;6.85;;;;;11.20;102068.00;;;;5107259;28;20030;-77
2021/08/04 06:16:50;;;;;;;13.60;7.13;;;;;11.20;102064.00;;;;5105471;28;20056;-78
2021/08/04 06:19:17;;;;;;;11.07;5.85;;;;;11.20;102089.00;;;;5107336;28;20031;-78
2021/08/04 06:21:43;;;;;;;8.80;5.38;;;;;11.20;102063.00;;;;5106668;28;20107;-78
2021/08/04 06:24:10;;;;;;;8.30;5.20;;;;;11.10;102077.00;;;;5106672;28;20028;-78
2021/08/04 06:26:36;;;;;;;10.88;4.85;;;;;11.20;102055.00;;;;5107380;28;20038;-78
2021/08/04 06:29:03;;;;;;;7.82;5.55;;;;;11.10;102082.00;;;;5107184;28;20031;-78
2021/08/04 06:31:31;;;;;;;7.78;5.25;;;;;11.20;102092.00;;;;5107156;28;20724;-78
2021/08/04 06:33:57;;;;;;;9.18;4.97;;;;;11.20;102057.00;;;;5107302;28;20379;-78
2021/08/04 06:36:25;;;;;;;10.25;5.10;;;;;11.20;102072.00;;;;5106818;28;20015;-78
2021/08/04 06:38:51;;;;;;;7.30;4.35;;;;;11.20;102055.00;;;;5108763;28;20031;-78
2021/08/04 06:41:18;;;;;;;6.95;4.40;;;;;11.20;102046.00;;;;5111150;28;20028;-78
2021/08/04 06:43:45;;;;;;;7.50;4.32;;;;;11.10;102074.00;;;;5110974;28;20023;-78
2021/08/04 06:46:13;;;;;;;6.55;4.20;;;;;11.10;102049.00;;;;5110832;28;20034;-79
2021/08/04 06:48:40;;;;;;;5.95;3.50;;;;;11.10;102074.00;;;;5110945;28;20028;-78
2021/08/04 06:51:06;;;;;;;5.65;3.70;;;;;11.10;102054.00;;;;5110620;28;20501;-78
2021/08/04 06:53:33;;;;;;;7.93;3.88;;;;;11.10;102063.00;;;;5110576;28;20028;-78
2021/08/04 06:55:59;;;;;;;5.32;3.30;;;;;11.10;102066.00;;;;5111182;28;20030;-78
2021/08/04 06:58:26;;;;;;;3.97;2.80;;;;;11.20;102060.00;;;;5110462;28;20032;-78
2021/08/04 07:00:52;;;;;;;3.58;2.50;;;;;11.20;102046.00;;;;5110380;28;20108;-79
2021/08/04 07:03:19;;;;;;;2.90;2.22;;;;;11.20;102050.00;;;;5110072;28;20027;-79
2021/08/04 07:05:47;;;;;;;2.65;2.00;;;;;11.20;102062.00;;;;5110717;28;20573;-78
2021/08/04 07:08:18;;;;;;;3.53;1.83;;;;;11.20;102066.00;;;;5110360;28;20032;-78
2021/08/04 07:10:46;;;;;;;3.13;2.03;;;;;11.20;102073.00;;;;5110416;28;20028;-78
2021/08/04 07:13:13;;;;;;;5.20;1.80;;;;;11.20;102058.00;;;;5110272;28;20028;-78
2021/08/04 07:15:39;;;;;;;3.40;3.03;;;;;11.20;102031.00;;;;5110036;28;20023;-79
2021/08/04 07:18:09;;;;;;;3.47;2.88;;;;;11.20;102020.00;;;;5110543;28;20051;-77
2021/08/04 07:20:38;;;;;;;5.43;2.95;;;;;11.10;102041.00;;;;5110263;28;20027;-77
2021/08/04 07:23:05;;;;;;;4.28;2.95;;;;;11.00;102020.00;;;;5110090;28;20482;-77
2021/08/04 07:25:32;;;;;;;4.72;2.92;;;;;11.00;102036.00;;;;5109894;28;20032;-78
2021/08/04 07:27:58;;;;;;;6.18;3.45;;;;;11.00;102041.00;;;;5110066;28;20540;-78
2021/08/04 07:30:26;;;;;;;2.90;2.60;;;;;11.00;102025.00;;;;5110038;28;20142;-77
2021/08/04 07:32:52;;;;;;;4.30;2.80;;;;;11.00;102027.00;;;;5109743;28;20371;-77
2021/08/04 07:35:19;;;;;;;2.40;2.20;;;;;11.00;102020.00;;;;5110066;28;20107;-78
2021/08/04 07:37:47;;;;;;;2.88;2.20;;;;;11.00;101997.00;;;;5109789;28;20027;-78
2021/08/04 07:40:16;;;;;;;3.88;2.40;;;;;11.00;102019.00;;;;5110061;28;20039;-78
2021/08/04 07:42:42;;;;;;;3.20;2.70;;;;;11.00;101989.00;;;;5110043;28;20827;-77
2021/08/04 07:45:09;;;;;;;3.03;2.72;;;;;11.00;102002.00;;;;5109347;28;20030;-77
2021/08/04 07:47:36;;;;;;;3.22;2.38;;;;;11.00;102015.00;;;;5110110;28;20031;-77
2021/08/04 07:50:04;;;;;;;3.35;1.85;;;;;11.00;101998.00;;;;5110168;28;20055;-77
2021/08/04 07:52:31;;;;;;;1.92;1.58;;;;;11.00;102015.00;;;;5109873;28;20382;-77
2021/08/04 07:54:57;;;;;;;1.58;1.17;;;;;11.00;102019.00;;;;5109534;28;20039;-78
2021/08/04 07:57:24;;;;;;;1.55;1.30;;;;;11.00;101988.00;;;;5107910;28;20118;-78
2021/08/04 07:59:50;;;;;;;3.58;1.58;;;;;11.00;102018.00;;;;5109504;28;20027;-77
2021/08/04 08:02:17;;;;;;;2.85;1.40;;;;;11.00;101989.00;;;;5110039;28;20073;-77
2021/08/04 08:04:43;;;;;;;1.77;1.27;;;;;11.00;101995.00;;;;5109191;28;20032;-77
2021/08/04 08:07:10;;;;;;;2.40;1.25;;;;;11.00;101979.00;;;;5109141;28;20501;-78
2021/08/04 08:09:36;;;;;;;2.08;1.50;;;;;11.00;101976.00;;;;5108902;28;20031;-78
2021/08/04 08:12:04;;;;;;;1.55;1.27;;;;;11.00;102014.00;;;;5108812;28;20111;-78
2021/08/04 08:14:31;;;;;;;1.38;1.00;;;;;11.00;102000.00;;;;5109445;28;20106;-77
2021/08/04 08:16:58;;;;;;;2.50;1.35;;;;;10.90;102003.00;;;;5109029;28;20460;-77
2021/08/04 08:19:25;;;;;;;3.35;1.35;;;;;11.00;102000.00;;;;5109053;28;20081;-78
2021/08/04 08:21:52;;;;;;;1.30;1.20;;;;;10.90;102004.00;;;;5108839;28;20031;-77
2021/08/04 08:24:20;;;;;;;1.92;1.20;;;;;11.00;102009.00;;;;5109685;28;20028;-77
2021/08/04 08:26:47;;;;;;;2.28;1.38;;;;;10.90;101985.00;;;;5108733;28;20024;-78
2021/08/04 08:29:14;;;;;;;5.03;1.27;;;;;11.00;101998.00;;;;5108937;28;20102;-77
2021/08/04 08:31:41;;;;;;;3.03;1.38;;;;;10.90;101998.00;;;;5108858;28;20023;-78
2021/08/04 08:34:08;;;;;;;2.92;1.30;;;;;10.90;102008.00;;;;5109002;28;20028;-78
2021/08/04 08:36:36;;;;;;;7.50;3.40;;;;;10.90;101984.00;;;;5108619;27;20045;-78
2021/08/04 08:39:06;;;;;;;3.20;1.40;;;;;10.90;101998.00;;;;5108548;28;20027;-78
2021/08/04 08:41:33;;;;;;;2.67;1.63;;;;;10.90;101990.00;;;;5108370;28;20028;-77
2021/08/04 08:44:00;;;;;;;1.60;1.40;;;;;10.90;101997.00;;;;5108546;27;20024;-77
2021/08/04 08:46:28;;;;;;;5.60;1.73;;;;;10.90;102009.00;;;;5108735;28;20039;-77
2021/08/04 08:48:56;;;;;;;2.78;1.67;;;;;10.90;101999.00;;;;5108927;28;20024;-78
2021/08/04 08:51:23;;;;;;;5.00;1.45;;;;;10.90;102011.00;;;;5108618;28;20038;-78
2021/08/04 08:53:51;;;;;;;2.05;1.60;;;;;10.90;102012.00;;;;5107667;28;20568;-77
2021/08/04 08:56:21;;;;;;;4.30;3.25;;;;;10.90;102025.00;;;;5108551;28;20027;-78
2021/08/04 08:58:49;;;;;;;2.58;1.80;;;;;10.90;102008.00;;;;5108553;28;20036;-78
2021/08/04 09:01:16;;;;;;;2.00;1.50;;;;;10.90;101994.00;;;;5108008;28;20494;-77
2021/08/04 09:03:43;;;;;;;2.83;1.70;;;;;10.90;102003.00;;;;5108278;28;20089;-78
2021/08/04 09:06:10;;;;;;;2.88;1.52;;;;;11.00;102018.00;;;;5108002;28;20055;-77
2021/08/04 09:08:38;;;;;;;3.20;1.40;;;;;11.00;102020.00;;;;5108100;28;20054;-77
2021/08/04 09:11:18;;;;;;;3.35;1.85;;;;;11.00;102006.00;;;;5108892;28;20025;-78
2021/08/04 09:13:47;;;;;;;2.97;1.58;;;;;11.00;101999.00;;;;5107732;28;20034;-78
2021/08/04 09:16:16;;;;;;;2.60;1.70;;;;;11.00;102028.00;;;;5107866;28;20035;-78
2021/08/04 09:18:47;;;;;;;2.60;1.35;;;;;10.90;102012.00;;;;5107759;28;20035;-78
2021/08/04 09:21:16;;;;;;;3.30;1.67;;;;;11.00;102036.00;;;;5108076;28;20059;-77
2021/08/04 09:23:53;;;;;;;2.45;1.40;;;;;11.00;102036.00;;;;5108092;28;20349;-77
2021/08/04 09:26:22;;;;;;;2.80;1.70;;;;;11.00;102023.00;;;;5106444;28;20516;-78
2021/08/04 09:28:59;;;;;;;2.55;1.33;;;;;11.00;102005.00;;;;5107748;28;20024;-78
2021/08/04 09:31:41;;;;;;;3.35;1.92;;;;;10.90;102029.00;;;;5108494;28;20106;-77
2021/08/04 09:34:39;;;;;;;2.38;1.55;;;;;11.00;102033.00;;;;5107712;28;20083;-79
2021/08/04 09:37:11;;;;;;;2.00;1.55;;;;;11.00;102040.00;;;;5107638;28;20088;-78
2021/08/04 09:39:39;;;;;;;1.63;1.52;;;;;11.00;102034.00;;;;5107677;28;20027;-78
2021/08/04 09:42:07;;;;;;;1.60;1.33;;;;;11.00;102045.00;;;;5108199;28;20050;-78
2021/08/04 09:44:34;;;;;;;1.45;1.08;;;;;11.00;102030.00;;;;5107358;28;20057;-77
2021/08/04 09:47:10;;;;;;;1.90;1.20;;;;;11.00;102044.00;;;;5105508;28;20045;-78
2021/08/04 09:49:38;;;;;;;1.05;0.95;;;;;11.00;102027.00;;;;5106510;28;20073;-78
2021/08/04 09:52:06;;;;;;;1.38;1.17;;;;;11.00;102034.00;;;;5105299;28;20062;-78
2021/08/04 09:54:38;;;;;;;1.38;1.27;;;;;10.90;102032.00;;;;5106964;28;20099;-78
2021/08/04 09:57:04;;;;;;;;;;;;;10.90;102048.00;;;;5107755;28;20024;-78
2021/08/04 09:59:31;;;;;;;1.45;1.20;;;;;10.90;102059.00;;;;5107122;28;19915;-78
2021/08/04 10:01:59;;;;;;;1.50;0.98;;;;;10.90;102059.00;;;;5107569;28;20069;-78
2021/08/04 10:04:26;;;;;;;2.15;1.00;;;;;10.90;102038.00;;;;5104580;28;20574;-78
2021/08/04 10:07:11;;;;;;;1.85;1.10;;;;;11.00;102040.00;;;;5106552;28;20038;-78
2021/08/04 10:09:38;;;;;;;4.38;0.95;;;;;11.00;102064.00;;;;5107143;28;20077;-78
2021/08/04 10:12:07;;;;;;;1.10;0.70;;;;;10.90;102036.00;;;;5107199;28;20074;-78
2021/08/04 10:14:36;;;;;;;0.85;0.70;;;;;11.00;102068.00;;;;5110939;28;20067;-78
2021/08/04 10:17:05;;;;;;;1.45;0.70;;;;;11.00;102060.00;;;;5112059;28;20051;-78
2021/08/04 10:19:33;;;;;;;1.67;0.98;;;;;11.00;102039.00;;;;5112008;28;20024;-78
2021/08/04 10:22:03;;;;;;;2.90;1.70;;;;;11.00;102042.00;;;;5111648;28;20570;-79
2021/08/04 10:24:30;;;;;;;1.42;0.90;;;;;11.00;102064.00;;;;5111616;28;20457;-78
2021/08/04 10:26:56;;;;;;;2.67;1.30;;;;;11.00;102074.00;;;;5111485;28;20023;-78
2021/08/04 10:29:24;;;;;;;0.88;0.70;;;;;11.00;102067.00;;;;5110283;28;20030;-77
2021/08/04 10:31:51;;;;;;;0.95;0.50;;;;;11.00;102077.00;;;;5109333;28;20082;-78
2021/08/04 10:34:25;;;;;;;1.27;0.40;;;;;10.90;102057.00;;;;5110376;28;20032;-78
2021/08/04 10:36:55;;;;;;;0.57;0.57;;;;;10.90;102069.00;;;;5111753;27;20035;-78
2021/08/04 10:39:24;;;;;;;0.57;0.50;;;;;10.90;102088.00;;;;5110947;28;20042;-78
2021/08/04 10:42:09;;;;;;;5.50;0.63;;;;;10.90;102061.00;;;;5110308;28;20081;-79
2021/08/04 10:44:36;;;;;;;0.43;0.40;;;;;10.90;102057.00;;;;5110950;28;20580;-80
2021/08/04 10:47:04;;;;;;;0.28;0.28;;;;;10.90;102090.00;;;;5110840;28;20019;-78
2021/08/04 10:49:35;;;;;;;0.57;0.40;;;;;10.90;102103.00;;;;5110874;28;20037;-80
2021/08/04 10:52:02;;;;;;;0.53;0.40;;;;;11.00;102092.00;;;;5110604;28;20486;-78
2021/08/04 10:54:30;;;;;;;2.45;0.80;;;;;11.00;102069.00;;;;5111056;28;20062;-78
2021/08/04 10:56:57;;;;;;;0.70;0.60;;;;;11.00;102091.00;;;;5111128;28;20055;-79
2021/08/04 10:59:27;;;;;;;0.98;0.70;;;;;11.10;102067.00;;;;5110558;28;20476;-78
2021/08/04 11:02:04;;;;;;;0.80;0.80;;;;;11.10;102065.00;;;;5111342;28;20110;-78
2021/08/04 11:04:32;;;;;;;0.90;0.60;;;;;11.10;102111.00;;;;5110139;28;20039;-78
2021/08/04 11:07:15;;;;;;;6.75;4.00;;;;;11.20;102099.00;;;;5110392;28;20038;-77
2021/08/04 11:09:51;;;;;;;0.70;0.70;;;;;11.20;102114.00;;;;5113642;28;20065;-79
2021/08/04 11:12:21;;;;;;;0.70;0.70;;;;;11.20;102115.00;;;;5110835;28;20036;-79
2021/08/04 11:14:55;;;;;;;0.73;0.73;;;;;11.20;102118.00;;;;5110751;28;20971;-78
2021/08/04 11:17:31;;;;;;;1.13;0.82;;;;;11.20;102126.00;;;;5108606;28;20147;-79
2021/08/04 11:22:47;;;;;;;0.68;0.60;;;;;11.20;102109.00;;;;5110245;28;20085;-79
2021/08/04 11:25:41;;;;;;;0.57;0.52;;;;;11.40;102131.00;;;;5110360;28;20023;-78
2021/08/04 11:28:11;;;;;;;1.02;0.93;;;;;11.40;102121.00;;;;5108940;28;20038;-79
2021/08/04 11:30:45;;;;;;;1.63;0.95;;;;;11.50;102115.00;;;;5109893;28;20490;-78
2021/08/04 11:33:30;;;;;;;3.35;0.80;;;;;11.70;102120.00;;;;5110182;28;20054;-79
2021/08/04 11:36:21;;;;;;;9.55;1.30;;;;;11.70;102106.00;;;;5109837;28;20038;-78
2021/08/04 11:38:54;;;;;;;0.80;0.80;;;;;11.70;102115.00;;;;5110250;28;20530;-78
2021/08/04 11:41:31;;;;;;;5.90;1.13;;;;;11.80;102117.00;;;;5109955;27;20028;-78
2021/08/04 11:44:10;;;;;;;5.70;1.88;;;;;11.80;102081.00;;;;5110359;28;20110;-78
2021/08/04 11:46:40;;;;;;;4.38;1.00;;;;;11.90;102119.00;;;;5109213;28;20144;-78
2021/08/04 11:49:14;;;;;;;7.23;1.03;;;;;11.90;102122.00;;;;5110639;28;20036;-78
2021/08/04 11:51:44;;;;;;;7.22;1.17;;;;;11.80;102115.00;;;;5109765;28;20030;-79
2021/08/04 11:54:13;;;;;;;1.50;0.85;;;;;11.80;102105.00;;;;5109753;28;20020;-79
2021/08/04 11:56:47;;;;;;;12.63;2.10;;;;;11.90;102135.00;;;;5109389;27;20388;-77
2021/08/04 11:59:15;;;;;;;2.10;1.17;;;;;12.00;102144.00;;;;5109428;28;20529;-79
2021/08/04 12:01:57;;;;;;;1.92;1.10;;;;;11.80;102147.00;;;;5109462;28;20031;-80
2021/08/04 12:04:24;;;;;;;2.40;0.98;;;;;11.70;102134.00;;;;5109787;28;20138;-78
2021/08/04 12:07:07;;;;;;;1.55;1.00;;;;;11.70;102137.00;;;;5109420;28;20016;-79
2021/08/04 12:09:36;;;;;;;1.20;1.10;;;;;11.60;102142.00;;;;5109379;28;20019;-79
2021/08/04 12:12:05;;;;;;;3.10;1.30;;;;;11.80;102146.00;;;;5113363;28;20031;-77
2021/08/04 12:14:35;;;;;;;4.50;2.70;;;;;11.80;102148.00;;;;5109051;28;20040;-77
2021/08/04 12:17:05;;;;;;;1.40;0.90;;;;;11.80;102148.00;;;;5108880;28;20112;-77